sensor_id;sensor_type;location;lat;lon;timestamp;P1;durP1;ratioP1;P2;durP2;ratioP2
17858;SDS011;35426;30.698;104.050;2023-04-30T00:00:29;68.40;;;18.92;;
17858;SDS011;35426;30.698;104.050;2023-04-30T00:03:04;64.82;;;21.65;;
17858;SDS011;35426;30.698;104.050;2023-04-30T00:05:39;65.53;;;19.90;;
17858;SDS011;35426;30.698;104.050;2023-04-30T00:08:12;67.82;;;19.67;;
17858;SDS011;35426;30.698;104.050;2023-04-30T00:10:45;73.43;;;20.95;;
17858;SDS011;35426;30.698;104.050;2023-04-30T00:13:18;71.43;;;19.48;;
17858;SDS011;35426;30.698;104.050;2023-04-30T00:15:52;66.20;;;19.77;;
17858;SDS011;35426;30.698;104.050;2023-04-30T00:18:25;73.60;;;19.70;;
17858;SDS011;35426;30.698;104.050;2023-04-30T00:21:00;66.88;;;19.70;;
17858;SDS011;35426;30.698;104.050;2023-04-30T00:23:34;61.75;;;19.70;;
17858;SDS011;35426;30.698;104.050;2023-04-30T00:26:07;59.00;;;19.10;;
17858;SDS011;35426;30.698;104.050;2023-04-30T00:28:40;68.30;;;21.23;;
17858;SDS011;35426;30.698;104.050;2023-04-30T00:31:13;58.95;;;20.38;;
17858;SDS011;35426;30.698;104.050;2023-04-30T00:33:46;63.65;;;20.17;;
17858;SDS011;35426;30.698;104.050;2023-04-30T00:36:21;66.57;;;21.27;;
17858;SDS011;35426;30.698;104.050;2023-04-30T00:38:55;70.78;;;20.58;;
17858;SDS011;35426;30.698;104.050;2023-04-30T00:41:28;69.10;;;20.33;;
17858;SDS011;35426;30.698;104.050;2023-04-30T00:44:03;71.35;;;20.60;;
17858;SDS011;35426;30.698;104.050;2023-04-30T00:46:37;69.05;;;20.83;;
17858;SDS011;35426;30.698;104.050;2023-04-30T00:49:10;72.97;;;21.48;;
17858;SDS011;35426;30.698;104.050;2023-04-30T00:51:46;64.07;;;21.42;;
17858;SDS011;35426;30.698;104.050;2023-04-30T00:54:20;67.75;;;20.83;;
17858;SDS011;35426;30.698;104.050;2023-04-30T00:56:56;72.00;;;21.15;;
17858;SDS011;35426;30.698;104.050;2023-04-30T00:59:30;76.68;;;22.85;;
17858;SDS011;35426;30.698;104.050;2023-04-30T01:02:05;62.50;;;18.75;;
17858;SDS011;35426;30.698;104.050;2023-04-30T01:04:39;64.22;;;19.20;;
17858;SDS011;35426;30.698;104.050;2023-04-30T01:07:14;67.07;;;18.25;;
17858;SDS011;35426;30.698;104.050;2023-04-30T01:09:47;66.25;;;18.88;;
17858;SDS011;35426;30.698;104.050;2023-04-30T01:12:24;64.45;;;18.08;;
17858;SDS011;35426;30.698;104.050;2023-04-30T01:15:06;53.72;;;16.23;;
17858;SDS011;35426;30.698;104.050;2023-04-30T01:17:47;64.38;;;16.95;;
17858;SDS011;35426;30.698;104.050;2023-04-30T01:20:27;61.47;;;17.70;;
17858;SDS011;35426;30.698;104.050;2023-04-30T01:23:10;66.13;;;17.38;;
17858;SDS011;35426;30.698;104.050;2023-04-30T01:26:06;68.20;;;17.27;;
17858;SDS011;35426;30.698;104.050;2023-04-30T01:28:50;60.67;;;17.58;;
17858;SDS011;35426;30.698;104.050;2023-04-30T01:31:25;65.95;;;18.23;;
17858;SDS011;35426;30.698;104.050;2023-04-30T01:33:59;68.75;;;19.77;;
17858;SDS011;35426;30.698;104.050;2023-04-30T01:36:36;55.38;;;18.05;;
17858;SDS011;35426;30.698;104.050;2023-04-30T01:39:36;65.00;;;18.88;;
17858;SDS011;35426;30.698;104.050;2023-04-30T01:42:19;66.40;;;17.35;;
17858;SDS011;35426;30.698;104.050;2023-04-30T01:45:11;64.50;;;15.85;;
17858;SDS011;35426;30.698;104.050;2023-04-30T01:47:54;56.95;;;15.68;;
17858;SDS011;35426;30.698;104.050;2023-04-30T01:50:37;59.20;;;16.15;;
17858;SDS011;35426;30.698;104.050;2023-04-30T01:53:16;62.65;;;16.60;;
17858;SDS011;35426;30.698;104.050;2023-04-30T01:55:56;57.78;;;16.50;;
17858;SDS011;35426;30.698;104.050;2023-04-30T01:58:36;57.30;;;15.27;;
17858;SDS011;35426;30.698;104.050;2023-04-30T02:04:00;62.35;;;16.50;;
17858;SDS011;35426;30.698;104.050;2023-04-30T02:06:36;49.80;;;14.52;;
17858;SDS011;35426;30.698;104.050;2023-04-30T02:09:09;62.58;;;15.23;;
17858;SDS011;35426;30.698;104.050;2023-04-30T02:11:43;57.65;;;15.15;;
17858;SDS011;35426;30.698;104.050;2023-04-30T02:14:16;50.88;;;13.50;;
17858;SDS011;35426;30.698;104.050;2023-04-30T02:16:54;52.78;;;13.98;;
17858;SDS011;35426;30.698;104.050;2023-04-30T02:19:27;53.10;;;13.50;;
17858;SDS011;35426;30.698;104.050;2023-04-30T02:22:01;53.75;;;13.07;;
17858;SDS011;35426;30.698;104.050;2023-04-30T02:24:35;48.60;;;12.10;;
17858;SDS011;35426;30.698;104.050;2023-04-30T02:27:09;55.28;;;12.25;;
17858;SDS011;35426;30.698;104.050;2023-04-30T02:29:42;59.65;;;12.80;;
17858;SDS011;35426;30.698;104.050;2023-04-30T02:32:17;53.10;;;14.07;;
17858;SDS011;35426;30.698;104.050;2023-04-30T02:34:50;67.18;;;15.10;;
17858;SDS011;35426;30.698;104.050;2023-04-30T02:37:23;59.83;;;13.57;;
17858;SDS011;35426;30.698;104.050;2023-04-30T02:39:56;55.33;;;14.43;;
17858;SDS011;35426;30.698;104.050;2023-04-30T02:42:30;60.80;;;14.40;;
17858;SDS011;35426;30.698;104.050;2023-04-30T02:45:06;66.30;;;14.07;;
17858;SDS011;35426;30.698;104.050;2023-04-30T02:47:44;57.65;;;13.85;;
17858;SDS011;35426;30.698;104.050;2023-04-30T02:50:18;46.35;;;14.38;;
17858;SDS011;35426;30.698;104.050;2023-04-30T02:52:53;58.13;;;13.73;;
17858;SDS011;35426;30.698;104.050;2023-04-30T02:55:26;60.38;;;14.95;;
17858;SDS011;35426;30.698;104.050;2023-04-30T02:58:01;57.22;;;13.98;;
17858;SDS011;35426;30.698;104.050;2023-04-30T03:00:35;64.30;;;14.35;;
17858;SDS011;35426;30.698;104.050;2023-04-30T03:03:10;65.63;;;13.75;;
17858;SDS011;35426;30.698;104.050;2023-04-30T03:05:44;54.08;;;14.38;;
17858;SDS011;35426;30.698;104.050;2023-04-30T03:08:17;61.42;;;14.35;;
17858;SDS011;35426;30.698;104.050;2023-04-30T03:10:50;55.35;;;13.35;;
17858;SDS011;35426;30.698;104.050;2023-04-30T03:13:24;64.63;;;14.00;;
17858;SDS011;35426;30.698;104.050;2023-04-30T03:15:57;68.70;;;15.00;;
17858;SDS011;35426;30.698;104.050;2023-04-30T03:18:35;55.90;;;14.20;;
17858;SDS011;35426;30.698;104.050;2023-04-30T03:21:08;59.28;;;14.68;;
17858;SDS011;35426;30.698;104.050;2023-04-30T03:23:41;53.30;;;14.18;;
17858;SDS011;35426;30.698;104.050;2023-04-30T03:26:14;58.45;;;14.55;;
17858;SDS011;35426;30.698;104.050;2023-04-30T03:28:48;60.50;;;14.52;;
17858;SDS011;35426;30.698;104.050;2023-04-30T03:31:21;63.10;;;15.45;;
17858;SDS011;35426;30.698;104.050;2023-04-30T03:33:56;55.75;;;15.32;;
17858;SDS011;35426;30.698;104.050;2023-04-30T03:36:30;66.65;;;15.13;;
17858;SDS011;35426;30.698;104.050;2023-04-30T03:39:04;67.60;;;15.52;;
17858;SDS011;35426;30.698;104.050;2023-04-30T03:41:38;55.42;;;14.93;;
17858;SDS011;35426;30.698;104.050;2023-04-30T03:44:11;61.65;;;14.63;;
17858;SDS011;35426;30.698;104.050;2023-04-30T03:46:45;51.60;;;13.93;;
17858;SDS011;35426;30.698;104.050;2023-04-30T03:49:20;62.60;;;13.50;;
17858;SDS011;35426;30.698;104.050;2023-04-30T03:51:54;55.70;;;13.00;;
17858;SDS011;35426;30.698;104.050;2023-04-30T03:54:27;60.30;;;14.23;;
17858;SDS011;35426;30.698;104.050;2023-04-30T03:57:02;57.25;;;14.18;;
17858;SDS011;35426;30.698;104.050;2023-04-30T03:59:36;59.55;;;13.43;;
17858;SDS011;35426;30.698;104.050;2023-04-30T04:02:10;57.67;;;14.68;;
17858;SDS011;35426;30.698;104.050;2023-04-30T04:04:46;58.33;;;15.13;;
17858;SDS011;35426;30.698;104.050;2023-04-30T04:07:20;56.17;;;14.13;;
17858;SDS011;35426;30.698;104.050;2023-04-30T04:09:54;57.90;;;13.23;;
17858;SDS011;35426;30.698;104.050;2023-04-30T04:12:29;58.95;;;11.85;;
17858;SDS011;35426;30.698;104.050;2023-04-30T04:15:02;51.43;;;12.17;;
17858;SDS011;35426;30.698;104.050;2023-04-30T04:17:35;58.30;;;11.77;;
17858;SDS011;35426;30.698;104.050;2023-04-30T04:20:11;56.53;;;12.77;;
17858;SDS011;35426;30.698;104.050;2023-04-30T04:22:44;57.20;;;12.30;;
17858;SDS011;35426;30.698;104.050;2023-04-30T04:25:18;60.07;;;14.80;;
17858;SDS011;35426;30.698;104.050;2023-04-30T04:27:53;50.87;;;14.20;;
17858;SDS011;35426;30.698;104.050;2023-04-30T04:30:27;52.53;;;13.27;;
17858;SDS011;35426;30.698;104.050;2023-04-30T04:33:00;55.37;;;13.73;;
17858;SDS011;35426;30.698;104.050;2023-04-30T04:35:36;63.00;;;13.93;;
17858;SDS011;35426;30.698;104.050;2023-04-30T04:38:09;57.63;;;13.60;;
17858;SDS011;35426;30.698;104.050;2023-04-30T04:40:50;56.67;;;12.97;;
17858;SDS011;35426;30.698;104.050;2023-04-30T04:43:24;60.70;;;13.83;;
17858;SDS011;35426;30.698;104.050;2023-04-30T04:45:58;50.83;;;12.57;;
17858;SDS011;35426;30.698;104.050;2023-04-30T04:48:32;65.07;;;13.40;;
17858;SDS011;35426;30.698;104.050;2023-04-30T04:51:08;49.40;;;12.03;;
17858;SDS011;35426;30.698;104.050;2023-04-30T04:53:50;54.63;;;12.67;;
17858;SDS011;35426;30.698;104.050;2023-04-30T04:56:30;45.70;;;11.50;;
17858;SDS011;35426;30.698;104.050;2023-04-30T04:59:04;48.67;;;12.60;;
17858;SDS011;35426;30.698;104.050;2023-04-30T05:01:39;50.37;;;11.97;;
17858;SDS011;35426;30.698;104.050;2023-04-30T05:04:12;66.37;;;12.63;;
17858;SDS011;35426;30.698;104.050;2023-04-30T05:06:47;59.30;;;12.50;;
17858;SDS011;35426;30.698;104.050;2023-04-30T05:09:20;53.20;;;13.80;;
17858;SDS011;35426;30.698;104.050;2023-04-30T05:11:53;56.40;;;13.83;;
17858;SDS011;35426;30.698;104.050;2023-04-30T05:14:26;60.00;;;14.70;;
17858;SDS011;35426;30.698;104.050;2023-04-30T05:17:00;68.80;;;14.27;;
17858;SDS011;35426;30.698;104.050;2023-04-30T05:19:33;52.93;;;13.37;;
17858;SDS011;35426;30.698;104.050;2023-04-30T05:22:09;48.73;;;12.70;;
17858;SDS011;35426;30.698;104.050;2023-04-30T05:24:42;68.87;;;14.33;;
17858;SDS011;35426;30.698;104.050;2023-04-30T05:27:15;69.77;;;14.63;;
17858;SDS011;35426;30.698;104.050;2023-04-30T05:29:49;57.40;;;14.03;;
17858;SDS011;35426;30.698;104.050;2023-04-30T05:32:23;71.07;;;15.00;;
17858;SDS011;35426;30.698;104.050;2023-04-30T05:34:58;59.33;;;13.27;;
17858;SDS011;35426;30.698;104.050;2023-04-30T05:37:34;63.17;;;14.00;;
17858;SDS011;35426;30.698;104.050;2023-04-30T05:40:07;58.00;;;13.20;;
17858;SDS011;35426;30.698;104.050;2023-04-30T05:42:42;62.03;;;12.63;;
17858;SDS011;35426;30.698;104.050;2023-04-30T05:45:17;57.53;;;13.17;;
17858;SDS011;35426;30.698;104.050;2023-04-30T05:47:50;54.00;;;12.40;;
17858;SDS011;35426;30.698;104.050;2023-04-30T05:50:24;45.13;;;12.73;;
17858;SDS011;35426;30.698;104.050;2023-04-30T05:52:58;53.60;;;11.43;;
17858;SDS011;35426;30.698;104.050;2023-04-30T05:55:32;43.67;;;11.57;;
17858;SDS011;35426;30.698;104.050;2023-04-30T05:58:05;63.63;;;12.27;;
17858;SDS011;35426;30.698;104.050;2023-04-30T06:00:39;49.23;;;11.37;;
17858;SDS011;35426;30.698;104.050;2023-04-30T06:03:12;48.07;;;11.43;;
17858;SDS011;35426;30.698;104.050;2023-04-30T06:05:47;53.97;;;12.47;;
17858;SDS011;35426;30.698;104.050;2023-04-30T06:08:22;47.50;;;12.87;;
17858;SDS011;35426;30.698;104.050;2023-04-30T06:10:57;49.23;;;11.53;;
17858;SDS011;35426;30.698;104.050;2023-04-30T06:13:32;63.90;;;12.80;;
17858;SDS011;35426;30.698;104.050;2023-04-30T06:16:06;43.50;;;11.67;;
17858;SDS011;35426;30.698;104.050;2023-04-30T06:18:40;44.57;;;11.07;;
17858;SDS011;35426;30.698;104.050;2023-04-30T06:21:13;51.93;;;11.23;;
17858;SDS011;35426;30.698;104.050;2023-04-30T06:23:51;46.53;;;10.77;;
17858;SDS011;35426;30.698;104.050;2023-04-30T06:26:25;48.33;;;10.57;;
17858;SDS011;35426;30.698;104.050;2023-04-30T06:28:59;40.57;;;10.37;;
17858;SDS011;35426;30.698;104.050;2023-04-30T06:31:33;52.00;;;11.83;;
17858;SDS011;35426;30.698;104.050;2023-04-30T06:34:07;49.27;;;11.00;;
17858;SDS011;35426;30.698;104.050;2023-04-30T06:36:40;50.37;;;11.37;;
17858;SDS011;35426;30.698;104.050;2023-04-30T06:39:17;51.23;;;11.17;;
17858;SDS011;35426;30.698;104.050;2023-04-30T06:41:50;56.33;;;10.93;;
17858;SDS011;35426;30.698;104.050;2023-04-30T06:44:23;38.43;;;9.50;;
17858;SDS011;35426;30.698;104.050;2023-04-30T06:46:58;46.03;;;10.00;;
17858;SDS011;35426;30.698;104.050;2023-04-30T06:49:31;42.03;;;9.97;;
17858;SDS011;35426;30.698;104.050;2023-04-30T06:52:04;40.00;;;10.17;;
17858;SDS011;35426;30.698;104.050;2023-04-30T06:54:39;49.97;;;9.87;;
17858;SDS011;35426;30.698;104.050;2023-04-30T06:57:11;45.90;;;9.97;;
17858;SDS011;35426;30.698;104.050;2023-04-30T06:59:45;45.60;;;9.67;;
17858;SDS011;35426;30.698;104.050;2023-04-30T07:02:18;38.90;;;10.00;;
17858;SDS011;35426;30.698;104.050;2023-04-30T07:04:51;54.13;;;10.13;;
17858;SDS011;35426;30.698;104.050;2023-04-30T07:07:25;47.93;;;10.20;;
17858;SDS011;35426;30.698;104.050;2023-04-30T07:10:00;40.33;;;9.27;;
17858;SDS011;35426;30.698;104.050;2023-04-30T07:12:33;47.90;;;10.73;;
17858;SDS011;35426;30.698;104.050;2023-04-30T07:15:07;43.10;;;8.97;;
17858;SDS011;35426;30.698;104.050;2023-04-30T07:17:41;40.80;;;9.37;;
17858;SDS011;35426;30.698;104.050;2023-04-30T07:20:15;38.47;;;9.30;;
17858;SDS011;35426;30.698;104.050;2023-04-30T07:22:48;38.80;;;8.67;;
17858;SDS011;35426;30.698;104.050;2023-04-30T07:25:25;43.23;;;8.97;;
17858;SDS011;35426;30.698;104.050;2023-04-30T07:27:59;41.87;;;9.53;;
17858;SDS011;35426;30.698;104.050;2023-04-30T07:30:32;39.57;;;9.97;;
17858;SDS011;35426;30.698;104.050;2023-04-30T07:33:04;40.57;;;10.37;;
17858;SDS011;35426;30.698;104.050;2023-04-30T07:35:38;44.20;;;10.33;;
17858;SDS011;35426;30.698;104.050;2023-04-30T07:38:11;40.87;;;9.57;;
17858;SDS011;35426;30.698;104.050;2023-04-30T07:41:14;38.90;;;8.63;;
17858;SDS011;35426;30.698;104.050;2023-04-30T07:43:48;38.93;;;8.83;;
17858;SDS011;35426;30.698;104.050;2023-04-30T07:46:21;39.33;;;9.27;;
17858;SDS011;35426;30.698;104.050;2023-04-30T07:48:55;48.27;;;9.90;;
17858;SDS011;35426;30.698;104.050;2023-04-30T07:51:28;40.43;;;10.60;;
17858;SDS011;35426;30.698;104.050;2023-04-30T07:54:03;45.33;;;9.73;;
17858;SDS011;35426;30.698;104.050;2023-04-30T07:56:40;44.03;;;9.90;;
17858;SDS011;35426;30.698;104.050;2023-04-30T07:59:14;48.87;;;9.67;;
17858;SDS011;35426;30.698;104.050;2023-04-30T08:01:49;42.87;;;9.90;;
17858;SDS011;35426;30.698;104.050;2023-04-30T08:04:22;39.43;;;8.80;;
17858;SDS011;35426;30.698;104.050;2023-04-30T08:06:56;47.10;;;10.70;;
17858;SDS011;35426;30.698;104.050;2023-04-30T08:09:30;50.90;;;10.93;;
17858;SDS011;35426;30.698;104.050;2023-04-30T08:12:04;44.07;;;9.87;;
17858;SDS011;35426;30.698;104.050;2023-04-30T08:14:40;42.03;;;10.33;;
17858;SDS011;35426;30.698;104.050;2023-04-30T08:17:13;51.57;;;10.60;;
17858;SDS011;35426;30.698;104.050;2023-04-30T08:19:46;50.13;;;11.40;;
17858;SDS011;35426;30.698;104.050;2023-04-30T08:22:21;35.30;;;10.50;;
17858;SDS011;35426;30.698;104.050;2023-04-30T08:24:57;60.67;;;11.40;;
17858;SDS011;35426;30.698;104.050;2023-04-30T08:27:33;47.77;;;9.83;;
17858;SDS011;35426;30.698;104.050;2023-04-30T08:30:07;46.47;;;10.20;;
17858;SDS011;35426;30.698;104.050;2023-04-30T08:32:40;43.37;;;10.03;;
17858;SDS011;35426;30.698;104.050;2023-04-30T08:35:13;41.07;;;9.60;;
17858;SDS011;35426;30.698;104.050;2023-04-30T08:37:47;49.80;;;10.07;;
17858;SDS011;35426;30.698;104.050;2023-04-30T08:40:21;46.10;;;9.60;;
17858;SDS011;35426;30.698;104.050;2023-04-30T08:43:17;41.03;;;9.43;;
17858;SDS011;35426;30.698;104.050;2023-04-30T08:45:51;43.37;;;9.40;;
17858;SDS011;35426;30.698;104.050;2023-04-30T08:48:25;43.47;;;9.67;;
17858;SDS011;35426;30.698;104.050;2023-04-30T08:51:00;44.57;;;9.80;;
17858;SDS011;35426;30.698;104.050;2023-04-30T08:53:34;39.67;;;9.33;;
17858;SDS011;35426;30.698;104.050;2023-04-30T08:56:09;44.73;;;9.80;;
17858;SDS011;35426;30.698;104.050;2023-04-30T08:58:44;49.30;;;9.43;;
17858;SDS011;35426;30.698;104.050;2023-04-30T09:01:17;43.23;;;10.07;;
17858;SDS011;35426;30.698;104.050;2023-04-30T09:03:50;45.13;;;9.47;;
17858;SDS011;35426;30.698;104.050;2023-04-30T09:06:24;44.57;;;9.50;;
17858;SDS011;35426;30.698;104.050;2023-04-30T09:08:58;37.67;;;8.97;;
17858;SDS011;35426;30.698;104.050;2023-04-30T09:11:40;42.03;;;9.17;;
17858;SDS011;35426;30.698;104.050;2023-04-30T09:14:19;41.00;;;9.47;;
17858;SDS011;35426;30.698;104.050;2023-04-30T09:16:55;38.67;;;9.10;;
17858;SDS011;35426;30.698;104.050;2023-04-30T09:19:31;34.87;;;8.63;;
17858;SDS011;35426;30.698;104.050;2023-04-30T09:22:20;38.63;;;8.57;;
17858;SDS011;35426;30.698;104.050;2023-04-30T09:24:55;46.90;;;8.90;;
17858;SDS011;35426;30.698;104.050;2023-04-30T09:27:29;35.10;;;8.10;;
17858;SDS011;35426;30.698;104.050;2023-04-30T09:30:04;41.33;;;8.97;;
17858;SDS011;35426;30.698;104.050;2023-04-30T09:32:46;40.83;;;8.73;;
17858;SDS011;35426;30.698;104.050;2023-04-30T09:35:29;34.57;;;8.40;;
17858;SDS011;35426;30.698;104.050;2023-04-30T09:38:03;35.60;;;8.80;;
17858;SDS011;35426;30.698;104.050;2023-04-30T09:40:36;38.33;;;9.10;;
17858;SDS011;35426;30.698;104.050;2023-04-30T09:43:10;31.43;;;8.70;;
17858;SDS011;35426;30.698;104.050;2023-04-30T09:45:47;34.90;;;8.80;;
17858;SDS011;35426;30.698;104.050;2023-04-30T09:48:20;42.13;;;9.50;;
17858;SDS011;35426;30.698;104.050;2023-04-30T09:50:55;34.67;;;8.97;;
17858;SDS011;35426;30.698;104.050;2023-04-30T09:53:29;42.37;;;10.03;;
17858;SDS011;35426;30.698;104.050;2023-04-30T09:56:04;38.47;;;10.00;;
17858;SDS011;35426;30.698;104.050;2023-04-30T09:58:40;40.47;;;9.60;;
17858;SDS011;35426;30.698;104.050;2023-04-30T10:01:23;36.00;;;10.03;;
17858;SDS011;35426;30.698;104.050;2023-04-30T10:03:59;40.37;;;9.70;;
17858;SDS011;35426;30.698;104.050;2023-04-30T10:06:34;35.53;;;9.77;;
17858;SDS011;35426;30.698;104.050;2023-04-30T10:09:09;42.90;;;9.07;;
17858;SDS011;35426;30.698;104.050;2023-04-30T10:11:44;35.03;;;9.43;;
17858;SDS011;35426;30.698;104.050;2023-04-30T10:14:19;38.73;;;9.50;;
17858;SDS011;35426;30.698;104.050;2023-04-30T10:16:56;39.43;;;9.33;;
17858;SDS011;35426;30.698;104.050;2023-04-30T10:19:35;39.33;;;9.67;;
17858;SDS011;35426;30.698;104.050;2023-04-30T10:22:13;42.63;;;10.23;;
17858;SDS011;35426;30.698;104.050;2023-04-30T10:24:47;37.00;;;9.50;;
17858;SDS011;35426;30.698;104.050;2023-04-30T10:27:21;34.10;;;9.57;;
17858;SDS011;35426;30.698;104.050;2023-04-30T10:29:55;41.20;;;9.80;;
17858;SDS011;35426;30.698;104.050;2023-04-30T10:32:32;41.03;;;10.43;;
17858;SDS011;35426;30.698;104.050;2023-04-30T10:35:10;33.10;;;9.37;;
17858;SDS011;35426;30.698;104.050;2023-04-30T10:37:56;38.47;;;9.27;;
17858;SDS011;35426;30.698;104.050;2023-04-30T10:40:36;32.83;;;8.83;;
17858;SDS011;35426;30.698;104.050;2023-04-30T10:43:10;37.70;;;9.60;;
17858;SDS011;35426;30.698;104.050;2023-04-30T10:45:44;33.70;;;9.70;;
17858;SDS011;35426;30.698;104.050;2023-04-30T10:48:22;38.73;;;9.30;;
17858;SDS011;35426;30.698;104.050;2023-04-30T10:50:57;46.50;;;10.33;;
17858;SDS011;35426;30.698;104.050;2023-04-30T10:53:31;41.77;;;10.57;;
17858;SDS011;35426;30.698;104.050;2023-04-30T10:56:09;34.50;;;9.70;;
17858;SDS011;35426;30.698;104.050;2023-04-30T10:58:42;44.60;;;9.67;;
17858;SDS011;35426;30.698;104.050;2023-04-30T11:01:16;35.33;;;9.77;;
17858;SDS011;35426;30.698;104.050;2023-04-30T11:04:04;42.70;;;9.93;;
17858;SDS011;35426;30.698;104.050;2023-04-30T11:06:48;34.83;;;9.60;;
17858;SDS011;35426;30.698;104.050;2023-04-30T11:09:40;41.50;;;10.10;;
17858;SDS011;35426;30.698;104.050;2023-04-30T11:12:15;39.97;;;9.90;;
17858;SDS011;35426;30.698;104.050;2023-04-30T11:14:59;40.10;;;10.10;;
17858;SDS011;35426;30.698;104.050;2023-04-30T11:17:36;45.27;;;10.77;;
17858;SDS011;35426;30.698;104.050;2023-04-30T11:20:17;35.30;;;10.03;;
17858;SDS011;35426;30.698;104.050;2023-04-30T11:25:39;36.40;;;9.63;;
17858;SDS011;35426;30.698;104.050;2023-04-30T11:28:15;34.87;;;10.17;;
17858;SDS011;35426;30.698;104.050;2023-04-30T11:30:52;39.07;;;10.07;;
17858;SDS011;35426;30.698;104.050;2023-04-30T11:33:30;37.67;;;10.40;;
17858;SDS011;35426;30.698;104.050;2023-04-30T11:36:06;32.73;;;10.40;;
17858;SDS011;35426;30.698;104.050;2023-04-30T11:38:42;40.67;;;10.87;;
17858;SDS011;35426;30.698;104.050;2023-04-30T11:41:16;37.63;;;10.53;;
17858;SDS011;35426;30.698;104.050;2023-04-30T11:43:51;40.03;;;9.87;;
17858;SDS011;35426;30.698;104.050;2023-04-30T11:46:24;44.27;;;10.83;;
17858;SDS011;35426;30.698;104.050;2023-04-30T11:48:59;48.73;;;11.20;;
17858;SDS011;35426;30.698;104.050;2023-04-30T11:51:35;37.57;;;10.40;;
17858;SDS011;35426;30.698;104.050;2023-04-30T11:54:08;33.03;;;10.60;;
17858;SDS011;35426;30.698;104.050;2023-04-30T11:56:46;40.63;;;11.77;;
17858;SDS011;35426;30.698;104.050;2023-04-30T11:59:20;49.50;;;11.13;;
17858;SDS011;35426;30.698;104.050;2023-04-30T12:01:53;37.80;;;10.70;;
17858;SDS011;35426;30.698;104.050;2023-04-30T12:04:27;41.13;;;10.43;;
17858;SDS011;35426;30.698;104.050;2023-04-30T12:07:06;51.00;;;11.83;;
17858;SDS011;35426;30.698;104.050;2023-04-30T12:09:52;40.50;;;10.83;;
17858;SDS011;35426;30.698;104.050;2023-04-30T12:12:26;41.87;;;12.40;;
17858;SDS011;35426;30.698;104.050;2023-04-30T12:15:02;46.80;;;11.70;;
17858;SDS011;35426;30.698;104.050;2023-04-30T12:17:43;35.73;;;10.57;;
17858;SDS011;35426;30.698;104.050;2023-04-30T12:20:17;36.77;;;11.73;;
17858;SDS011;35426;30.698;104.050;2023-04-30T12:22:53;35.93;;;11.03;;
17858;SDS011;35426;30.698;104.050;2023-04-30T12:25:27;42.43;;;11.77;;
17858;SDS011;35426;30.698;104.050;2023-04-30T12:28:01;41.77;;;11.37;;
17858;SDS011;35426;30.698;104.050;2023-04-30T12:30:34;41.33;;;11.73;;
17858;SDS011;35426;30.698;104.050;2023-04-30T12:33:08;44.37;;;11.10;;
17858;SDS011;35426;30.698;104.050;2023-04-30T12:35:42;45.33;;;11.30;;
17858;SDS011;35426;30.698;104.050;2023-04-30T12:38:17;41.87;;;11.57;;
17858;SDS011;35426;30.698;104.050;2023-04-30T12:40:51;38.87;;;11.50;;
17858;SDS011;35426;30.698;104.050;2023-04-30T12:43:24;39.60;;;11.50;;
17858;SDS011;35426;30.698;104.050;2023-04-30T12:45:58;35.20;;;11.10;;
17858;SDS011;35426;30.698;104.050;2023-04-30T12:48:41;49.30;;;12.40;;
17858;SDS011;35426;30.698;104.050;2023-04-30T12:51:18;44.33;;;12.63;;
17858;SDS011;35426;30.698;104.050;2023-04-30T12:53:53;45.13;;;12.23;;
17858;SDS011;35426;30.698;104.050;2023-04-30T12:56:27;45.73;;;12.40;;
17858;SDS011;35426;30.698;104.050;2023-04-30T12:59:01;47.80;;;12.00;;
17858;SDS011;35426;30.698;104.050;2023-04-30T13:01:47;41.90;;;12.47;;
17858;SDS011;35426;30.698;104.050;2023-04-30T13:04:23;46.90;;;12.57;;
17858;SDS011;35426;30.698;104.050;2023-04-30T13:06:58;43.63;;;12.60;;
17858;SDS011;35426;30.698;104.050;2023-04-30T13:09:33;41.83;;;11.80;;
17858;SDS011;35426;30.698;104.050;2023-04-30T13:12:07;39.33;;;11.47;;
17858;SDS011;35426;30.698;104.050;2023-04-30T13:14:40;50.30;;;12.30;;
17858;SDS011;35426;30.698;104.050;2023-04-30T13:17:14;55.50;;;12.20;;
17858;SDS011;35426;30.698;104.050;2023-04-30T13:19:46;45.80;;;12.50;;
17858;SDS011;35426;30.698;104.050;2023-04-30T13:22:20;46.73;;;12.63;;
17858;SDS011;35426;30.698;104.050;2023-04-30T13:25:00;46.90;;;12.57;;
17858;SDS011;35426;30.698;104.050;2023-04-30T13:27:33;43.77;;;11.27;;
17858;SDS011;35426;30.698;104.050;2023-04-30T13:30:07;48.53;;;11.67;;
17858;SDS011;35426;30.698;104.050;2023-04-30T13:32:41;49.97;;;11.97;;
17858;SDS011;35426;30.698;104.050;2023-04-30T13:35:15;51.97;;;12.33;;
17858;SDS011;35426;30.698;104.050;2023-04-30T13:37:49;52.43;;;13.87;;
17858;SDS011;35426;30.698;104.050;2023-04-30T13:40:24;51.00;;;13.13;;
17858;SDS011;35426;30.698;104.050;2023-04-30T13:42:57;50.33;;;14.13;;
17858;SDS011;35426;30.698;104.050;2023-04-30T13:45:31;43.90;;;13.63;;
17858;SDS011;35426;30.698;104.050;2023-04-30T13:48:05;48.93;;;13.57;;
17858;SDS011;35426;30.698;104.050;2023-04-30T13:50:39;53.03;;;13.03;;
17858;SDS011;35426;30.698;104.050;2023-04-30T13:53:13;60.57;;;13.67;;
17858;SDS011;35426;30.698;104.050;2023-04-30T13:55:49;53.77;;;14.20;;
17858;SDS011;35426;30.698;104.050;2023-04-30T13:58:23;58.07;;;13.60;;
17858;SDS011;35426;30.698;104.050;2023-04-30T14:01:00;55.17;;;12.67;;
17858;SDS011;35426;30.698;104.050;2023-04-30T14:03:37;50.97;;;12.80;;
17858;SDS011;35426;30.698;104.050;2023-04-30T14:06:11;60.00;;;13.67;;
17858;SDS011;35426;30.698;104.050;2023-04-30T14:08:45;54.67;;;14.73;;
17858;SDS011;35426;30.698;104.050;2023-04-30T14:11:24;50.93;;;14.03;;
17858;SDS011;35426;30.698;104.050;2023-04-30T14:13:58;45.87;;;14.20;;
17858;SDS011;35426;30.698;104.050;2023-04-30T14:16:31;40.83;;;13.63;;
17858;SDS011;35426;30.698;104.050;2023-04-30T14:19:04;44.70;;;13.47;;
17858;SDS011;35426;30.698;104.050;2023-04-30T14:21:38;47.43;;;12.70;;
17858;SDS011;35426;30.698;104.050;2023-04-30T14:24:11;37.73;;;12.33;;
17858;SDS011;35426;30.698;104.050;2023-04-30T14:26:48;50.23;;;12.63;;
17858;SDS011;35426;30.698;104.050;2023-04-30T14:29:24;51.73;;;12.77;;
17858;SDS011;35426;30.698;104.050;2023-04-30T14:32:07;48.53;;;12.37;;
17858;SDS011;35426;30.698;104.050;2023-04-30T14:34:41;38.10;;;12.40;;
17858;SDS011;35426;30.698;104.050;2023-04-30T14:37:15;42.73;;;12.20;;
17858;SDS011;35426;30.698;104.050;2023-04-30T14:39:52;41.67;;;11.70;;
17858;SDS011;35426;30.698;104.050;2023-04-30T14:42:27;49.87;;;12.87;;
17858;SDS011;35426;30.698;104.050;2023-04-30T14:45:01;49.33;;;13.53;;
17858;SDS011;35426;30.698;104.050;2023-04-30T14:47:34;44.10;;;12.40;;
17858;SDS011;35426;30.698;104.050;2023-04-30T14:50:08;44.57;;;13.20;;